Time;durP1;ratioP1;P1;durP2;ratioP2;P2;SDS_P1;SDS_P2;PMS_P1;PMS_P2;Temp;Humidity;BMP_temperature;BMP_pressure;BME280_temperature;BME280_humidity;BME280_pressure;Samples;Min_cycle;Max_cycle;Signal;HPM_P1;HPM_P2
2022/11/19 00:01:49;;;;;;;46.38;36.33;;;;;;;5.07;100.00;100553.88;6127020;23;20040;-87
2022/11/19 00:04:14;;;;;;;48.33;36.65;;;;;;;4.94;100.00;100535.81;6123771;23;20006;-88
2022/11/19 00:06:39;;;;;;;47.38;36.35;;;;;;;5.03;100.00;100547.00;6130420;23;20336;-88
2022/11/19 00:09:05;;;;;;;52.28;36.72;;;;;;;5.00;100.00;100542.66;6128753;23;20010;-87
2022/11/19 00:14:15;;;;;;;44.40;33.55;;;;;;;5.00;100.00;100569.91;6124589;23;20248;-87
2022/11/19 00:16:42;;;;;;;42.05;31.33;;;;;;;4.85;100.00;100570.41;6122944;23;20085;-88
2022/11/19 00:19:09;;;;;;;39.20;32.08;;;;;;;4.67;100.00;100556.00;6125723;23;20033;-87
2022/11/19 00:21:34;;;;;;;44.85;32.63;;;;;;;4.66;100.00;100542.88;6144046;23;20017;-87
2022/11/19 00:24:00;;;;;;;45.60;33.50;;;;;;;4.75;100.00;100569.81;6150687;23;19997;-87
2022/11/19 00:26:25;;;;;;;46.25;33.25;;;;;;;4.67;100.00;100579.72;6149791;23;19997;-86
2022/11/19 00:28:50;;;;;;;44.53;34.28;;;;;;;4.50;100.00;100558.31;6149749;23;20069;-88
2022/11/19 00:31:17;;;;;;;50.63;33.50;;;;;;;4.62;100.00;100583.44;6150484;23;20013;-88
2022/11/19 00:33:43;;;;;;;44.85;33.75;;;;;;;4.44;100.00;100553.22;6151116;23;20009;-87
2022/11/19 00:36:11;;;;;;;51.40;35.83;;;;;;;4.63;100.00;100586.00;6137408;23;20010;-88
2022/11/19 00:38:37;;;;;;;50.80;36.75;;;;;;;4.66;100.00;100588.56;6128093;23;20336;-88
2022/11/19 00:41:02;;;;;;;50.35;36.00;;;;;;;4.58;100.00;100584.44;6126243;23;20006;-87
2022/11/19 00:43:46;;;;;;;52.90;37.20;;;;;;;4.46;100.00;100577.75;6125065;23;20017;-88
2022/11/19 00:46:13;;;;;;;51.08;36.60;;;;;;;4.37;100.00;100572.75;6099621;23;20024;-88
2022/11/19 00:48:38;;;;;;;56.00;38.83;;;;;;;4.44;100.00;100592.75;6125115;23;20013;-89
2022/11/19 00:51:04;;;;;;;52.03;38.60;;;;;;;4.40;100.00;100578.81;6123897;23;19994;-88
2022/11/19 00:53:29;;;;;;;55.65;39.47;;;;;;;4.33;100.00;100576.41;6122265;23;20033;-86
2022/11/19 00:55:59;;;;;;;51.30;38.30;;;;;;;4.38;100.00;100591.16;6096292;23;20491;-87
2022/11/19 00:58:24;;;;;;;53.60;37.65;;;;;;;4.35;100.00;100588.63;6122457;23;20144;-88
2022/11/19 01:00:50;;;;;;;52.83;36.88;;;;;;;4.33;100.00;100584.28;6121495;23;20073;-86
2022/11/19 01:03:15;;;;;;;46.20;33.35;;;;;;;4.30;100.00;100603.69;6095116;23;20010;-88
2022/11/19 01:05:41;;;;;;;46.17;32.03;;;;;;;4.21;100.00;100598.69;6121306;23;20615;-88
2022/11/19 01:08:06;;;;;;;47.95;33.88;;;;;;;4.07;100.00;100591.19;6121860;23;20495;-87
2022/11/19 01:10:33;;;;;;;47.97;32.78;;;;;;;4.03;100.00;100594.81;6123189;23;20089;-88
2022/11/19 01:15:42;;;;;;;49.47;35.90;;;;;;;3.90;100.00;100599.53;6124057;23;20049;-87
2022/11/19 01:18:07;;;;;;;49.83;35.67;;;;;;;4.10;100.00;100621.84;6095743;23;20006;-87
2022/11/19 01:20:32;;;;;;;44.58;33.22;;;;;;;3.97;100.00;100605.50;6124956;23;20009;-87
2022/11/19 01:22:58;;;;;;;45.45;33.63;;;;;;;4.02;100.00;100626.47;6124004;23;20006;-88
2022/11/19 01:25:23;;;;;;;45.00;32.63;;;;;;;4.00;100.00;100623.84;6120653;23;20008;-87
2022/11/19 01:27:48;;;;;;;41.38;32.20;;;;;;;3.83;100.00;100613.78;6122445;23;20324;-88
2022/11/19 01:30:14;;;;;;;44.88;31.13;;;;;;;3.82;100.00;100621.72;6120943;23;20006;-89
2022/11/19 01:32:39;;;;;;;46.28;33.75;;;;;;;3.89;100.00;100632.06;6098527;23;20013;-88
2022/11/19 01:35:05;;;;;;;46.33;32.78;;;;;;;3.84;100.00;100620.75;6094764;23;20010;-87
2022/11/19 01:37:30;;;;;;;43.53;32.35;;;;;;;3.89;100.00;100631.19;6121532;23;20033;-88
2022/11/19 01:39:55;;;;;;;40.72;31.35;;;;;;;3.77;100.00;100626.25;6122085;23;20005;-88
2022/11/19 01:45:36;;;;;;;37.60;30.50;;;;;;;3.64;100.00;100636.25;6119522;23;20093;-87
2022/11/19 01:48:23;;;;;;;41.83;29.98;;;;;;;3.69;100.00;100650.13;6121447;23;20017;-89
2022/11/19 01:51:10;;;;;;;40.05;30.17;;;;;;;3.70;100.00;100652.72;6119868;23;20094;-89
2022/11/19 01:53:36;;;;;;;42.75;30.85;;;;;;;3.73;100.00;100652.66;6119402;23;20002;-89
2022/11/19 01:56:04;;;;;;;38.20;29.42;;;;;;;3.60;100.00;100645.97;6121191;23;20017;-88
2022/11/19 01:58:35;;;;;;;39.55;29.50;;;;;;;3.56;100.00;100635.56;6122516;23;20005;-88
2022/11/19 02:01:01;;;;;;;41.63;30.25;;;;;;;3.58;100.00;100660.06;6096767;23;20428;-88
2022/11/19 02:03:29;;;;;;;38.15;28.25;;;;;;;3.44;100.00;100647.25;6120956;23;20013;-88
2022/11/19 02:05:54;;;;;;;36.92;29.33;;;;;;;3.40;100.00;100651.72;6095566;23;20105;-87
2022/11/19 02:08:37;;;;;;;37.95;28.77;;;;;;;3.48;100.00;100660.28;6123555;23;20344;-86
2022/11/19 02:11:24;;;;;;;35.70;28.15;;;;;;;3.42;100.00;100659.56;6124869;23;20002;-88
2022/11/19 02:14:27;;;;;;;36.35;28.17;;;;;;;3.36;100.00;100665.84;6121129;23;20006;-89
2022/11/19 02:17:24;;;;;;;38.55;29.27;;;;;;;3.35;100.00;100658.88;6122108;23;20081;-88
2022/11/19 02:20:02;;;;;;;32.70;27.52;;;;;;;3.28;100.00;100678.31;6122190;23;20460;-87
2022/11/19 02:22:43;;;;;;;33.75;27.63;;;;;;;3.27;100.00;100678.38;6095329;23;20024;-88
2022/11/19 02:25:30;;;;;;;31.88;26.67;;;;;;;3.21;100.00;100679.34;6096326;23;20002;-88
2022/11/19 02:28:36;;;;;;;32.42;26.85;;;;;;;3.25;100.00;100667.88;6121155;23;20060;-87
2022/11/19 02:31:15;;;;;;;33.17;27.27;;;;;;;3.08;100.00;100677.91;6053394;23;20002;-87
2022/11/19 02:33:53;;;;;;;30.83;26.55;;;;;;;3.07;100.00;100678.81;6121640;23;20379;-88
2022/11/19 02:36:27;;;;;;;31.35;26.48;;;;;;;3.05;100.00;100680.59;6094847;23;20017;-88
2022/11/19 02:39:05;;;;;;;32.78;28.50;;;;;;;2.97;100.00;100688.69;6096448;23;20025;-87
2022/11/19 02:41:39;;;;;;;35.03;29.00;;;;;;;2.93;100.00;100677.38;6123878;23;20006;-87
2022/11/19 02:47:24;;;;;;;34.97;30.08;;;;;;;2.94;100.00;100696.63;6144928;23;20024;-86
2022/11/19 02:49:55;;;;;;;37.72;30.55;;;;;;;2.92;100.00;100686.13;6146273;23;19990;-87
2022/11/19 02:52:20;;;;;;;34.00;28.33;;;;;;;2.73;100.00;100674.31;6147541;23;20005;-86
2022/11/19 02:54:46;;;;;;;34.22;27.27;;;;;;;2.77;100.00;100678.59;6122978;23;20006;-86
2022/11/19 02:57:12;;;;;;;33.28;26.65;;;;;;;2.80;100.00;100693.41;6121524;23;20006;-87
2022/11/19 03:05:26;;;;;;;26.60;23.70;;;;;;;2.63;100.00;100688.53;6120826;23;20056;-87
2022/11/19 03:07:52;;;;;;;26.40;21.85;;;;;;;2.57;100.00;100699.16;6122087;23;20002;-88
2022/11/19 03:10:21;;;;;;;24.90;22.30;;;;;;;2.54;100.00;100694.84;6122243;23;20013;-88
2022/11/19 03:12:59;;;;;;;24.50;21.90;;;;;;;2.43;100.00;100684.56;6098443;23;20417;-88
2022/11/19 03:18:32;;;;;;;24.17;21.42;;;;;;;2.48;100.00;100692.34;6121827;23;20022;-87
2022/11/19 03:21:07;;;;;;;22.85;20.48;;;;;;;2.44;100.00;100709.91;6121409;23;20159;-86
2022/11/19 03:23:39;;;;;;;23.40;20.77;;;;;;;2.44;100.00;100711.69;6120240;23;20017;-87
2022/11/19 03:26:28;;;;;;;23.50;21.05;;;;;;;2.34;100.00;100700.50;6094091;23;20018;-87
2022/11/19 03:28:58;;;;;;;24.83;22.23;;;;;;;2.21;100.00;100683.22;6081503;23;20010;-88
2022/11/19 03:31:26;;;;;;;23.92;21.40;;;;;;;2.42;100.00;100722.22;6120191;23;20065;-87
2022/11/19 03:33:58;;;;;;;24.08;21.60;;;;;;;2.34;100.00;100724.16;6124837;23;20036;-88
2022/11/19 03:36:29;;;;;;;24.80;22.08;;;;;;;2.34;100.00;100713.63;6125370;23;20491;-87
2022/11/19 03:39:00;;;;;;;24.55;21.95;;;;;;;2.30;100.00;100725.09;6134879;23;20014;-87
2022/11/19 03:41:27;;;;;;;24.67;21.58;;;;;;;2.23;100.00;100731.34;6131709;23;20616;-87
2022/11/19 03:44:00;;;;;;;24.48;21.88;;;;;;;2.21;100.00;100725.25;6123555;23;20469;-88
2022/11/19 03:46:30;;;;;;;26.83;22.98;;;;;;;2.24;100.00;100733.06;6124902;23;20373;-88
2022/11/19 03:48:57;;;;;;;25.50;22.67;;;;;;;2.20;100.00;100721.75;6124180;23;20006;-87
2022/11/19 03:51:32;;;;;;;25.63;22.85;;;;;;;2.10;100.00;100703.59;6124363;23;20089;-87
2022/11/19 03:53:58;;;;;;;25.23;22.17;;;;;;;2.20;100.00;100719.13;6123566;23;20117;-87
2022/11/19 03:56:26;;;;;;;26.73;23.45;;;;;;;2.19;100.00;100729.66;6124120;23;20006;-86
2022/11/19 03:58:52;;;;;;;26.67;23.67;;;;;;;2.10;100.00;100728.06;6122282;23;20006;-87
2022/11/19 04:01:17;;;;;;;26.73;23.73;;;;;;;2.09;100.00;100730.72;6121585;23;20336;-87
2022/11/19 04:04:34;;;;;;;28.23;23.33;;;;;;;2.06;100.00;100729.03;6120670;23;20006;-87
2022/11/19 04:06:28;;;;;;;29.27;24.95;;;;;;;1.96;100.00;100709.94;6121665;23;20021;-86
2022/11/19 04:08:53;;;;;;;27.48;24.17;;;;;;;2.08;100.00;100740.34;6123581;23;20005;-87
2022/11/19 04:11:18;;;;;;;30.52;26.48;;;;;;;2.11;100.00;100734.19;6122778;23;20038;-87
2022/11/19 04:13:44;;;;;;;32.80;25.42;;;;;;;2.11;100.00;100735.06;6124215;23;20302;-87
2022/11/19 04:16:09;;;;;;;29.33;24.80;;;;;;;2.00;100.00;100729.97;6124732;23;20002;-88
2022/11/19 04:18:34;;;;;;;30.42;25.90;;;;;;;1.95;100.00;100726.56;6124247;23;20583;-88
2022/11/19 04:20:59;;;;;;;30.48;25.83;;;;;;;1.91;100.00;100727.53;6122698;23;20021;-88
2022/11/19 04:23:25;;;;;;;30.27;25.88;;;;;;;1.82;100.00;100709.31;6123408;23;20013;-88
2022/11/19 04:25:50;;;;;;;31.58;26.20;;;;;;;1.77;100.00;100708.53;6122425;23;20013;-87
2022/11/19 04:28:15;;;;;;;31.58;25.88;;;;;;;1.76;100.00;100704.19;6123734;23;20061;-87
2022/11/19 04:30:42;;;;;;;34.30;27.20;;;;;;;1.97;100.00;100745.81;6124118;23;20021;-88
2022/11/19 04:33:07;;;;;;;32.63;25.85;;;;;;;1.99;100.00;100753.66;6122360;23;20006;-88
2022/11/19 04:35:33;;;;;;;34.13;27.33;;;;;;;1.99;100.00;100748.41;6124897;23;20002;-87
2022/11/19 04:37:58;;;;;;;34.53;27.45;;;;;;;2.00;100.00;100758.84;6123799;23;20002;-88
2022/11/19 04:40:23;;;;;;;32.85;26.95;;;;;;;1.86;100.00;100742.50;6124402;23;20009;-88
2022/11/19 04:42:49;;;;;;;33.35;27.25;;;;;;;1.95;100.00;100762.47;6120678;23;20022;-88
2022/11/19 04:45:14;;;;;;;33.13;26.90;;;;;;;1.81;100.00;100753.97;6119120;23;20013;-88
2022/11/19 04:47:39;;;;;;;34.55;27.48;;;;;;;1.69;100.00;100749.78;6121104;23;20362;-87
2022/11/19 04:50:05;;;;;;;36.08;28.08;;;;;;;1.70;100.00;100751.50;6124373;23;20005;-88
2022/11/19 04:52:31;;;;;;;37.35;28.83;;;;;;;1.78;100.00;100757.50;6122709;23;20628;-87
2022/11/19 04:54:56;;;;;;;35.67;28.33;;;;;;;1.80;100.00;100755.72;6123049;23;20010;-88
2022/11/19 04:57:21;;;;;;;38.30;29.77;;;;;;;1.90;100.00;100769.56;6123763;23;20069;-87
2022/11/19 04:59:47;;;;;;;34.97;28.83;;;;;;;1.93;100.00;100774.75;6124315;23;20009;-88
2022/11/19 05:02:12;;;;;;;35.47;28.77;;;;;;;1.75;100.00;100762.78;6123541;23;20379;-87
2022/11/19 05:04:40;;;;;;;33.63;27.85;;;;;;;1.80;100.00;100786.31;6128309;23;20090;-86
2022/11/19 05:07:05;;;;;;;35.17;29.52;;;;;;;1.83;100.00;100781.03;6126730;23;20281;-87
2022/11/19 05:09:30;;;;;;;35.78;29.58;;;;;;;1.68;100.00;100769.91;6137224;23;20033;-86
2022/11/19 05:11:56;;;;;;;35.50;28.80;;;;;;;1.52;100.00;100736.91;6129576;23;20006;-87
2022/11/19 05:14:21;;;;;;;33.45;28.25;;;;;;;1.75;100.00;100775.91;6125993;23;20013;-87
2022/11/19 05:16:46;;;;;;;34.38;28.13;;;;;;;1.73;100.00;100775.06;6125640;23;20089;-87
2022/11/19 05:19:11;;;;;;;35.03;29.10;;;;;;;1.64;100.00;100778.72;6125906;23;20085;-87
2022/11/19 05:21:37;;;;;;;38.45;30.05;;;;;;;1.49;100.00;100757.94;6124990;23;20049;-88
2022/11/19 05:24:02;;;;;;;36.70;29.90;;;;;;;1.81;100.00;100801.19;6124105;23;20002;-88
2022/11/19 05:26:27;;;;;;;37.03;29.77;;;;;;;1.70;100.00;100790.84;6122313;23;20002;-86
2022/11/19 05:28:52;;;;;;;34.92;29.42;;;;;;;1.55;100.00;100785.81;6123255;23;20266;-87
2022/11/19 05:31:18;;;;;;;36.50;30.05;;;;;;;1.66;100.00;100802.28;6124838;23;20129;-86
2022/11/19 05:33:43;;;;;;;37.55;30.13;;;;;;;1.61;100.00;100815.47;6124473;23;20005;-87
2022/11/19 05:36:08;;;;;;;36.97;30.90;;;;;;;1.60;100.00;100810.25;6123764;23;20349;-87
2022/11/19 05:38:34;;;;;;;36.50;30.73;;;;;;;1.69;100.00;100823.25;6123953;23;20021;-87
2022/11/19 05:40:59;;;;;;;36.03;30.13;;;;;;;1.56;100.00;100804.19;6124598;23;20487;-86
2022/11/19 05:43:24;;;;;;;38.80;31.65;;;;;;;1.59;100.00;100811.13;6121024;23;20363;-86
2022/11/19 05:45:49;;;;;;;37.65;30.95;;;;;;;1.57;100.00;100819.03;6123545;23;20065;-86
2022/11/19 05:48:15;;;;;;;41.42;33.00;;;;;;;1.59;100.00;100816.38;6121827;23;20048;-86
2022/11/19 05:50:41;;;;;;;40.38;32.50;;;;;;;1.57;100.00;100824.28;6124113;23;20006;-87
2022/11/19 05:53:07;;;;;;;37.58;30.33;;;;;;;1.50;100.00;100830.50;6120712;23;20096;-86
2022/11/19 05:55:32;;;;;;;38.08;31.58;;;;;;;1.44;100.00;100828.84;6121684;23;20087;-87
2022/11/19 05:57:58;;;;;;;40.08;33.00;;;;;;;1.44;100.00;100826.22;6120806;23;20009;-87
2022/11/19 06:00:23;;;;;;;39.83;32.40;;;;;;;1.48;100.00;100830.53;6123615;23;20006;-87
2022/11/19 06:02:48;;;;;;;39.60;32.38;;;;;;;1.45;100.00;100840.19;6120717;23;20006;-85
2022/11/19 06:05:14;;;;;;;38.53;32.65;;;;;;;1.35;100.00;100825.47;6121417;23;20005;-87
2022/11/19 06:07:39;;;;;;;38.72;32.35;;;;;;;1.38;100.00;100817.53;6121084;23;20002;-87
2022/11/19 06:10:05;;;;;;;40.08;33.25;;;;;;;1.45;100.00;100833.19;6124102;23;20002;-88
2022/11/19 06:12:30;;;;;;;41.58;33.15;;;;;;;1.51;100.00;100834.00;6123167;23;20033;-86
2022/11/19 06:14:55;;;;;;;40.15;33.17;;;;;;;1.44;100.00;100841.06;6123396;23;20050;-87
2022/11/19 06:17:22;;;;;;;40.88;33.35;;;;;;;1.44;100.00;100844.56;6121644;23;20436;-87
2022/11/19 06:19:47;;;;;;;42.45;34.92;;;;;;;1.43;100.00;100849.84;6120974;23;20006;-87
2022/11/19 06:22:12;;;;;;;44.08;34.95;;;;;;;1.41;100.00;100851.59;6121918;23;20016;-88
2022/11/19 06:24:38;;;;;;;41.85;34.03;;;;;;;1.40;100.00;100853.38;6122130;23;20329;-89
2022/11/19 06:27:03;;;;;;;41.85;35.13;;;;;;;1.41;100.00;100860.34;6119385;23;20064;-87
2022/11/19 06:29:28;;;;;;;44.10;35.05;;;;;;;1.29;100.00;100842.13;6122011;23;20010;-89
2022/11/19 06:31:54;;;;;;;42.92;35.92;;;;;;;1.32;100.00;100849.97;6122197;23;20006;-89
2022/11/19 06:34:19;;;;;;;42.20;34.67;;;;;;;1.44;100.00;100869.94;6122873;23;20001;-91
2022/11/19 06:36:44;;;;;;;41.35;34.45;;;;;;;1.32;100.00;100876.19;6124230;23;20009;-89
2022/11/19 06:39:10;;;;;;;42.95;35.58;;;;;;;1.27;100.00;100878.00;6124144;23;20006;-92
2022/11/19 06:41:35;;;;;;;43.63;35.50;;;;;;;1.29;100.00;100875.34;6122574;23;20340;-92
2022/11/19 06:44:01;;;;;;;45.55;36.42;;;;;;;1.34;100.00;100884.03;6096643;23;20020;-91
2022/11/19 06:46:26;;;;;;;45.67;36.35;;;;;;;1.29;100.00;100872.72;6123143;23;20010;-90
2022/11/19 06:48:51;;;;;;;45.30;36.33;;;;;;;1.29;100.00;100875.34;6097493;23;20040;-88
2022/11/19 06:51:17;;;;;;;44.40;35.88;;;;;;;1.41;100.00;100896.19;6096179;23;20052;-91
2022/11/19 06:53:42;;;;;;;46.22;37.35;;;;;;;1.24;100.00;100876.28;6124381;23;20089;-91
2022/11/19 06:56:08;;;;;;;48.47;37.42;;;;;;;1.21;100.00;100872.81;6097887;23;20120;-90
2022/11/19 06:58:33;;;;;;;48.72;38.25;;;;;;;1.37;100.00;100897.97;6098100;23;20049;-91
2022/11/19 07:00:59;;;;;;;50.03;37.83;;;;;;;1.36;100.00;100893.63;6098329;23;20633;-92
2022/11/19 07:03:25;;;;;;;53.15;39.45;;;;;;;1.35;100.00;100894.53;6099162;23;20017;-92
2022/11/19 07:05:57;;;;;;;51.97;38.88;;;;;;;1.35;100.00;100897.16;6100033;23;20036;-90
2022/11/19 07:08:23;;;;;;;50.58;38.05;;;;;;;1.12;100.00;100884.28;6100070;23;20426;-93
2022/11/19 07:10:48;;;;;;;51.90;39.10;;;;;;;1.14;100.00;100895.63;6099757;23;20081;-92
2022/11/19 07:13:13;;;;;;;51.40;39.00;;;;;;;1.10;100.00;100886.06;6102483;23;20507;-91
2022/11/19 07:15:39;;;;;;;52.53;38.22;;;;;;;1.14;100.00;100905.25;6128727;23;20006;-93
2022/11/19 07:18:04;;;;;;;52.03;39.05;;;;;;;1.05;100.00;100889.66;6103973;23;20041;-89
2022/11/19 07:20:29;;;;;;;52.97;39.65;;;;;;;1.00;100.00;100892.28;6139328;23;20002;-91
2022/11/19 07:22:55;;;;;;;52.38;39.25;;;;;;;1.04;100.00;100911.47;6114171;23;20064;-90
2022/11/19 07:25:20;;;;;;;53.42;39.67;;;;;;;1.12;100.00;100923.63;6138161;23;20471;-91
2022/11/19 07:27:48;;;;;;;50.85;38.85;;;;;;;0.98;100.00;100912.41;6114594;23;20017;-90
2022/11/19 07:30:14;;;;;;;50.90;38.80;;;;;;;0.94;100.00;100916.81;6117772;23;20017;-93
2022/11/19 07:32:40;;;;;;;50.13;38.38;;;;;;;1.03;100.00;100931.56;6110769;23;20041;-88
2022/11/19 07:35:06;;;;;;;49.75;38.25;;;;;;;1.04;100.00;100920.19;6104788;23;20006;-94
2022/11/19 07:37:31;;;;;;;50.08;38.25;;;;;;;0.87;100.00;100899.41;6104283;23;19993;-95
2022/11/19 07:39:57;;;;;;;48.03;36.30;;;;;;;0.93;100.00;100909.84;6104945;23;20009;-92
2022/11/19 07:45:09;;;;;;;47.13;36.47;;;;;;;0.87;100.00;100914.28;6128574;23;20042;-96
2022/11/19 07:47:35;;;;;;;49.58;37.83;;;;;;;0.87;100.00;100923.00;6130493;23;20013;-96
2022/11/19 07:50:01;;;;;;;50.47;37.72;;;;;;;0.83;100.00;100916.03;6139435;23;20006;-96
2022/11/19 07:52:30;;;;;;;46.67;37.30;;;;;;;0.67;100.00;100896.13;6137529;23;20021;-96
2022/11/19 07:54:59;;;;;;;50.15;38.40;;;;;;;0.70;100.00;100896.97;6139752;23;20028;-94
2022/11/19 07:57:24;;;;;;;45.90;35.83;;;;;;;0.71;100.00;100909.19;6132176;23;20014;-94
2022/11/19 07:59:49;;;;;;;50.85;38.08;;;;;;;0.99;100.00;100956.94;6133098;23;20002;-95
2022/11/19 08:02:15;;;;;;;49.95;37.58;;;;;;;1.08;100.00;100971.72;6128765;23;20010;-94
2022/11/19 08:04:41;;;;;;;49.13;38.10;;;;;;;0.95;100.00;100931.66;6130592;23;20009;-96
2022/11/19 08:07:06;;;;;;;50.25;37.22;;;;;;;0.99;100.00;100940.34;6133310;23;20013;-95
2022/11/19 08:09:32;;;;;;;49.10;37.35;;;;;;;1.17;100.00;100962.88;6132496;23;20061;-96
2022/11/19 08:11:57;;;;;;;47.58;37.42;;;;;;;0.77;100.00;100910.03;6127596;23;20002;-95
2022/11/19 08:14:25;;;;;;;50.00;38.45;;;;;;;0.78;100.00;100915.22;6129337;23;20417;-95
2022/11/19 08:19:35;;;;;;;50.78;38.08;;;;;;;1.19;100.00;100969.00;6124767;23;20089;-89
2022/11/19 08:22:00;;;;;;;50.65;36.53;;;;;;;1.07;100.00;100963.88;6124554;23;20002;-92
2022/11/19 08:24:26;;;;;;;49.38;37.65;;;;;;;1.19;100.00;100969.00;6133874;23;20010;-95
2022/11/19 08:26:51;;;;;;;51.50;37.70;;;;;;;1.15;100.00;100973.41;6128775;23;20344;-93
2022/11/19 08:29:19;;;;;;;53.10;36.88;;;;;;;1.24;100.00;100975.06;6130688;23;20010;-95
2022/11/19 08:31:46;;;;;;;48.65;36.85;;;;;;;1.32;100.00;100983.72;6137693;23;20013;-94
2022/11/19 08:34:12;;;;;;;50.15;37.67;;;;;;;1.22;100.00;100971.59;6128424;23;20016;-94
2022/11/19 08:36:37;;;;;;;48.92;37.17;;;;;;;1.20;100.00;100962.84;6132192;23;20061;-95
2022/11/19 08:39:03;;;;;;;47.90;35.38;;;;;;;1.33;100.00;100987.19;6126635;23;20006;-96
2022/11/19 08:44:13;;;;;;;49.20;36.22;;;;;;;1.32;100.00;100981.09;6129745;23;20033;-90
2022/11/19 08:46:39;;;;;;;47.15;35.53;;;;;;;1.34;100.00;100983.69;6126341;23;20006;-90
2022/11/19 08:49:04;;;;;;;46.53;34.80;;;;;;;1.33;100.00;100988.06;6127742;23;20009;-92
2022/11/19 08:51:30;;;;;;;47.80;35.75;;;;;;;1.22;100.00;100974.22;6124567;23;20580;-88
2022/11/19 08:53:55;;;;;;;46.58;35.20;;;;;;;1.19;100.00;100980.34;6127228;23;20010;-92
2022/11/19 08:56:21;;;;;;;48.03;35.75;;;;;;;1.21;100.00;100975.06;6124989;23;20022;-92
2022/11/19 08:58:47;;;;;;;48.70;35.63;;;;;;;1.35;100.00;100995.94;6123555;23;20555;-92
2022/11/19 09:01:16;;;;;;;47.83;35.55;;;;;;;1.38;100.00;100999.41;6120604;23;20720;-90
2022/11/19 09:03:41;;;;;;;44.95;33.95;;;;;;;1.37;100.00;100992.38;6117304;23;20014;-88
2022/11/19 09:06:07;;;;;;;45.35;34.63;;;;;;;1.33;100.00;100990.69;6119806;23;20014;-87
2022/11/19 09:08:33;;;;;;;45.78;33.92;;;;;;;1.36;100.00;100993.28;6119759;23;20033;-86
2022/11/19 09:11:03;;;;;;;47.60;34.55;;;;;;;1.33;100.00;100993.31;6124109;23;20119;-87
2022/11/19 09:13:29;;;;;;;44.05;33.00;;;;;;;1.35;100.00;100986.31;6123068;23;20010;-87
2022/11/19 09:15:54;;;;;;;48.08;34.92;;;;;;;1.42;100.00;100993.22;6120949;23;20073;-87
2022/11/19 09:18:19;;;;;;;46.20;34.80;;;;;;;1.43;100.00;101007.22;6121637;23;20026;-87
2022/11/19 09:20:45;;;;;;;48.97;33.83;;;;;;;1.42;100.00;101001.09;6120818;23;20460;-86
2022/11/19 09:23:10;;;;;;;49.60;35.00;;;;;;;1.44;100.00;101012.44;6121806;23;20009;-88
2022/11/19 09:25:35;;;;;;;46.90;34.95;;;;;;;1.47;100.00;101022.91;6122170;23;20016;-88
2022/11/19 09:28:01;;;;;;;44.53;33.88;;;;;;;1.41;100.00;101017.69;6122895;23;20085;-88
2022/11/19 09:30:26;;;;;;;49.00;34.67;;;;;;;1.49;100.00;101017.63;6120134;23;20030;-85
2022/11/19 09:32:51;;;;;;;47.58;33.63;;;;;;;1.46;100.00;101023.78;6120224;23;20133;-87
2022/11/19 09:35:17;;;;;;;45.30;32.72;;;;;;;1.48;100.00;101035.13;6122515;23;20017;-86
2022/11/19 09:37:43;;;;;;;45.05;32.72;;;;;;;1.40;100.00;101031.72;6123360;23;20006;-87
2022/11/19 09:40:19;;;;;;;45.20;31.48;;;;;;;1.46;100.00;101034.28;6121798;23;20495;-88
2022/11/19 09:43:07;;;;;;;47.45;33.88;;;;;;;1.62;100.00;101037.59;6127829;23;20492;-88
2022/11/19 09:46:00;;;;;;;45.03;32.13;;;;;;;1.54;100.00;101033.31;6124518;23;20009;-87
2022/11/19 09:48:35;;;;;;;44.78;30.60;;;;;;;1.49;100.00;101044.72;6120490;23;20097;-87
2022/11/19 09:51:10;;;;;;;45.83;31.48;;;;;;;1.48;100.00;101055.25;6121928;23;20005;-87
2022/11/19 09:53:44;;;;;;;43.28;31.08;;;;;;;1.47;100.00;101061.38;6126885;23;20002;-88
2022/11/19 09:56:16;;;;;;;43.80;31.88;;;;;;;1.38;99.22;101049.22;6125572;23;20034;-87
2022/11/19 09:58:44;;;;;;;46.05;31.85;;;;;;;1.47;99.68;101064.00;6123454;23;20006;-87
2022/11/19 10:01:15;;;;;;;47.72;32.63;;;;;;;1.42;99.52;101069.28;6122123;23;20056;-87
2022/11/19 10:03:53;;;;;;;44.08;31.75;;;;;;;1.41;99.55;101059.66;6123833;23;20002;-88
2022/11/19 10:06:29;;;;;;;44.17;31.17;;;;;;;1.39;99.29;101056.19;6123930;23;20017;-87
2022/11/19 10:09:25;;;;;;;39.78;28.65;;;;;;;1.41;99.80;101064.91;6123464;23;20336;-88
2022/11/19 10:12:02;;;;;;;42.13;30.33;;;;;;;1.41;99.19;101059.66;6123182;23;19998;-87
2022/11/19 10:14:47;;;;;;;40.88;29.88;;;;;;;1.36;99.26;101055.34;6120512;23;20014;-87
2022/11/19 10:17:35;;;;;;;37.42;29.58;;;;;;;1.46;98.33;101063.13;6122946;23;20049;-88
2022/11/19 10:20:28;;;;;;;39.38;28.90;;;;;;;1.53;99.44;101068.31;6122027;23;20017;-88
2022/11/19 10:23:22;;;;;;;37.17;28.38;;;;;;;1.51;98.17;101083.22;6119997;23;20009;-87
2022/11/19 10:25:50;;;;;;;39.25;28.75;;;;;;;1.48;98.06;101071.84;6122116;23;20032;-86
2022/11/19 10:28:24;;;;;;;40.83;29.63;;;;;;;1.52;98.13;101074.44;6120784;23;20010;-87
2022/11/19 10:30:54;;;;;;;39.88;28.90;;;;;;;1.45;97.66;101077.13;6119679;23;20428;-85
2022/11/19 10:33:47;;;;;;;38.67;28.00;;;;;;;1.35;98.03;101044.00;6122475;23;20068;-87
2022/11/19 10:36:30;;;;;;;36.80;28.85;;;;;;;1.45;96.91;101077.13;6114283;23;20486;-88
2022/11/19 10:39:02;;;;;;;37.25;27.88;;;;;;;1.37;95.92;101078.94;6124280;23;20009;-88
2022/11/19 10:41:44;;;;;;;33.53;26.40;;;;;;;1.28;96.46;101063.28;6122738;23;20076;-88
2022/11/19 10:44:36;;;;;;;35.65;26.20;;;;;;;1.36;96.27;101082.44;6123549;23;20002;-88
2022/11/19 10:47:08;;;;;;;34.90;26.52;;;;;;;1.32;96.56;101066.75;6122412;23;20016;-88
2022/11/19 10:49:38;;;;;;;35.05;26.65;;;;;;;1.40;96.10;101086.78;6123084;23;20014;-87
2022/11/19 10:52:08;;;;;;;36.60;27.02;;;;;;;1.38;96.82;101064.06;6123231;23;20005;-88
2022/11/19 10:54:33;;;;;;;34.33;27.00;;;;;;;1.37;96.34;101065.81;6120032;23;20010;-88
2022/11/19 10:56:59;;;;;;;32.65;25.83;;;;;;;1.44;95.75;101078.00;6122594;23;20009;-88
2022/11/19 10:59:27;;;;;;;37.80;28.17;;;;;;;1.49;95.85;101073.56;6122676;23;20006;-87
2022/11/19 11:01:58;;;;;;;35.55;27.35;;;;;;;1.52;96.55;101074.44;6123226;23;20111;-87
2022/11/19 11:04:27;;;;;;;32.00;25.27;;;;;;;1.52;94.57;101087.56;6121662;23;20054;-87
2022/11/19 11:06:57;;;;;;;33.72;25.65;;;;;;;1.38;94.79;101064.97;6123581;23;20005;-87
2022/11/19 11:09:36;;;;;;;31.15;25.90;;;;;;;1.47;95.16;101080.59;6123989;23;20016;-88
2022/11/19 11:15:07;;;;;;;33.85;26.90;;;;;;;1.47;95.67;101075.34;6124301;23;20029;-86
2022/11/19 11:17:35;;;;;;;33.42;26.73;;;;;;;1.37;95.38;101059.72;6124045;23;20013;-88
2022/11/19 11:20:04;;;;;;;33.85;25.27;;;;;;;1.32;93.80;101074.63;6120950;23;20010;-87
2022/11/19 11:22:30;;;;;;;34.85;26.63;;;;;;;1.30;93.79;101085.16;6123709;23;20014;-87
2022/11/19 11:24:58;;;;;;;33.75;27.33;;;;;;;1.32;95.12;101077.25;6124053;23;20055;-87
2022/11/19 11:27:29;;;;;;;32.47;25.30;;;;;;;1.32;94.64;101083.38;6124223;23;20009;-87
2022/11/19 11:30:10;;;;;;;32.92;25.63;;;;;;;1.43;95.30;101078.03;6122685;23;20016;-88
2022/11/19 11:32:35;;;;;;;31.48;25.40;;;;;;;1.46;95.31;101073.63;6124017;23;19998;-88
2022/11/19 11:35:00;;;;;;;31.33;25.65;;;;;;;1.53;95.86;101078.78;6125487;23;20002;-88
2022/11/19 11:37:26;;;;;;;32.20;26.08;;;;;;;1.53;95.52;101068.31;6122275;23;20010;-88
2022/11/19 11:39:54;;;;;;;31.88;25.33;;;;;;;1.44;94.81;101064.88;6120674;23;20374;-87
2022/11/19 11:42:22;;;;;;;30.67;24.48;;;;;;;1.56;95.85;101058.66;6120848;23;20026;-87
2022/11/19 11:44:57;;;;;;;29.25;24.30;;;;;;;1.69;94.54;101070.75;6121224;23;20121;-88
2022/11/19 11:47:25;;;;;;;31.42;24.40;;;;;;;1.70;94.66;101066.38;6123540;23;20013;-88
2022/11/19 11:50:13;;;;;;;29.55;24.20;;;;;;;1.72;95.19;101062.84;6122491;23;20061;-87